Pride — WDE9046 — position and weather

sailwx.info

Track history (hours):
 
Tides and Currents Weather Stations Pressure Air Temp Water Temp Dewpoint Dewpoint Depression Visibility Wind Speed Wind Dir Waves Ship Positions

Pride

Owner: Intrepid Ship Management, Jacksonville, FL. More information available from US FCC via Universal Licensing System and Coast Guard Vessel Documentation Center.

Last reported at 2018-Jul-18 18:49 UTC. Time now 2018-Jul-19 19:26 UTC.
Position N 25°11' W 080°06'.

Length 215 m; draft 6.4 m.

Type: Towing. MMSI: 366341000.

Date/timePositionNaut miles runAvg speedWind from/ knotsBaromVisibWave heightAir tempDewpointWater temp
2018-Jul-18 18:49N 25°11' W 080°06'2 6.3
2018-Jul-18 18:26N 25°13' W 080°05'3 6.6
2018-Jul-18 18:00N 25°16' W 080°04'3 6.7
2018-Jul-18 17:30N 25°19' W 080°03'3 6.3
2018-Jul-18 16:59N 25°22' W 080°01'3 6.4
2018-Jul-18 16:30N 25°25' W 080°01'3 6.2
2018-Jul-18 16:00N 25°28' W 080°01'3 6.1
2018-Jul-18 15:30N 25°31' W 080°02'3 6.2
2018-Jul-18 15:00N 25°34' W 080°02'3 6.1
2018-Jul-18 14:30N 25°37' W 080°02'3 5.8
2018-Jul-18 14:00N 25°40' W 080°02'3 5.5
2018-Jul-18 13:30N 25°43' W 080°02'3 5.5
2018-Jul-18 13:00N 25°46' W 080°02'3 5.3
2018-Jul-18 12:30N 25°48' W 080°02'3 5.3
2018-Jul-18 12:00N 25°51' W 080°02'3 5.3
2018-Jul-18 11:30N 25°54' W 080°02'5 5.3
2018-Jul-18 10:30N 25°59' W 080°02'3 5.4
2018-Jul-18 10:00N 26°02' W 080°03'5 9.1
2018-Jul-18 09:30N 26°06' W 080°05'2 4.2
2018-Jul-18 09:00N 26°05' W 080°07'0 0.2
2018-Jul-18 08:30N 26°05' W 080°07'0 0.0
2018-Jul-18 08:00N 26°05' W 080°07'0 0.0
2018-Jul-18 07:30N 26°05' W 080°07'0 0.0
2018-Jul-18 06:57N 26°05' W 080°07'0 0.0
2018-Jul-18 06:30N 26°05' W 080°07'0 0.0
2018-Jul-18 06:00N 26°05' W 080°07'0 0.0
2018-Jul-18 05:30N 26°05' W 080°07'0 0.0
2018-Jul-18 05:00N 26°05' W 080°07'0 0.0
2018-Jul-18 04:30N 26°05' W 080°07'0 0.0
2018-Jul-18 04:00N 26°05' W 080°07'0 0.0
2018-Jul-18 03:21N 26°05' W 080°07'0 0.0
2018-Jul-18 02:51N 26°05' W 080°07'0 0.0
2018-Jul-18 02:30N 26°05' W 080°07'0 0.0
2018-Jul-18 01:54N 26°05' W 080°07'0 0.0
2018-Jul-18 01:24N 26°05' W 080°07'0 0.0
2018-Jul-18 00:54N 26°05' W 080°07'0 0.0
2018-Jul-18 00:24N 26°05' W 080°07'0 0.0
2018-Jul-17 23:54N 26°05' W 080°07'0 0.0
2018-Jul-17 23:24N 26°05' W 080°07'0 0.0
2018-Jul-17 22:54N 26°05' W 080°07'0 0.0
2018-Jul-17 22:24N 26°05' W 080°07'0 0.0
2018-Jul-17 21:57N 26°05' W 080°07'0 0.0
2018-Jul-17 21:27N 26°05' W 080°07'0 0.0
2018-Jul-17 20:57N 26°05' W 080°07'0 0.0
2018-Jul-17 20:27N 26°05' W 080°07'0 0.0
2018-Jul-17 20:00N 26°05' W 080°07'0 0.0
2018-Jul-17 19:30N 26°05' W 080°07'0 0.0
2018-Jul-17 19:00N 26°05' W 080°07'0 0.0
2018-Jul-17 18:27N 26°05' W 080°07'0 0.0
2018-Jul-17 18:00N 26°05' W 080°07'0 0.0
2018-Jul-17 17:27N 26°05' W 080°07'0 0.0
2018-Jul-17 17:00N 26°05' W 080°07'0 0.0
2018-Jul-17 16:30N 26°05' W 080°07'0 0.0
2018-Jul-17 16:00N 26°05' W 080°07'0 0.0
2018-Jul-17 15:30N 26°05' W 080°07'0 0.0
2018-Jul-17 15:00N 26°05' W 080°07'0 0.0
2018-Jul-17 14:30N 26°05' W 080°07'0 0.0
2018-Jul-17 14:00N 26°05' W 080°07'0 0.0
2018-Jul-17 13:30N 26°05' W 080°07'0 0.0
2018-Jul-17 13:00N 26°05' W 080°07'0 0.0
2018-Jul-17 12:30N 26°05' W 080°07'0 0.0
2018-Jul-17 12:00N 26°05' W 080°07'0 0.0
2018-Jul-17 11:30N 26°05' W 080°07'0 0.0
2018-Jul-17 10:51N 26°05' W 080°07'0 0.0
2018-Jul-17 10:21N 26°05' W 080°07'0 0.0
2018-Jul-17 09:54N 26°05' W 080°07'0 0.0
2018-Jul-17 09:24N 26°05' W 080°07'0 0.0
2018-Jul-17 08:54N 26°05' W 080°07'0 0.0
2018-Jul-17 08:24N 26°05' W 080°07'0 0.0
2018-Jul-17 07:57N 26°05' W 080°07'0 0.0
2018-Jul-17 07:24N 26°05' W 080°07'0 0.0
2018-Jul-17 06:57N 26°05' W 080°07'0 0.0
2018-Jul-17 06:27N 26°05' W 080°07'0 0.0
2018-Jul-17 05:57N 26°05' W 080°07'0 0.0
2018-Jul-17 05:30N 26°05' W 080°07'0 0.0
2018-Jul-17 04:57N 26°05' W 080°07'0 0.0
2018-Jul-17 04:30N 26°05' W 080°07'0 0.0
2018-Jul-17 04:00N 26°05' W 080°07'0 0.0
2018-Jul-17 03:30N 26°05' W 080°07'0 0.2
2018-Jul-17 03:00N 26°05' W 080°07'0 0.0
2018-Jul-17 02:30N 26°05' W 080°07'0 0.5
2018-Jul-17 02:00N 26°05' W 080°07'4 7.4
2018-Jul-17 01:30N 26°06' W 080°03'3 6.3
2018-Jul-17 01:00N 26°09' W 080°01'0 0.3
2018-Jul-17 00:29N 26°09' W 080°01'0 0.5
2018-Jul-16 23:30N 26°09' W 080°01'713.7
2018-Jul-16 23:00N 26°04' W 079°56'815.7
2018-Jul-16 22:30N 25°57' W 079°53'816.7
2018-Jul-16 22:01N 25°49' W 079°53'816.6
2018-Jul-16 21:31N 25°40' W 079°53'916.5
2018-Jul-16 20:59N 25°32' W 079°54'  
2018-Jul-13 22:54N 29°12' W 093°40'511.9
2018-Jul-13 22:28N 29°17' W 093°40'511.8
2018-Jul-13 22:01N 29°23' W 093°40'611.8
2018-Jul-13 21:31N 29°29' W 093°40'611.7
2018-Jul-13 21:01N 29°33' W 093°45'510.9
2018-Jul-13 20:30N 29°37' W 093°49'611.3
2018-Jul-13 20:00N 29°42' W 093°51'4 8.3
2018-Jul-13 19:30N 29°46' W 093°54'4 7.9
2018-Jul-13 19:00N 29°48' W 093°57'2 4.7
2018-Jul-13 18:30N 29°50' W 093°58'0 0.7
2018-Jul-13 18:01N 29°51' W 093°58'0 0.0
2018-Jul-13 17:29N 29°51' W 093°58'0 0.0
2018-Jul-13 16:59N 29°51' W 093°58'0 0.0
2018-Jul-13 16:29N 29°51' W 093°58'0 0.0
2018-Jul-13 15:59N 29°51' W 093°58'0 0.0
2018-Jul-13 15:29N 29°51' W 093°58'0 0.0
2018-Jul-13 14:59N 29°51' W 093°58'0 0.0
2018-Jul-13 13:59N 29°51' W 093°58'0 0.0
2018-Jul-13 13:29N 29°51' W 093°58'0 0.0
2018-Jul-13 12:59N 29°51' W 093°58'0 0.0
2018-Jul-13 12:29N 29°51' W 093°58'0 0.0
2018-Jul-13 11:59N 29°51' W 093°58'0 0.0
2018-Jul-13 11:29N 29°51' W 093°58'0 0.0
2018-Jul-13 10:59N 29°51' W 093°58'0 0.0
2018-Jul-13 10:29N 29°51' W 093°58'0 0.0
2018-Jul-13 09:59N 29°51' W 093°58'0 0.0
2018-Jul-13 09:29N 29°51' W 093°58'0 0.0
2018-Jul-13 08:59N 29°51' W 093°58'0 0.0
2018-Jul-13 08:29N 29°51' W 093°58'0 0.0
2018-Jul-13 07:59N 29°51' W 093°58'0 0.0
2018-Jul-13 07:29N 29°51' W 093°58'0 0.0
2018-Jul-13 06:59N 29°51' W 093°58'0 0.0
2018-Jul-13 06:29N 29°51' W 093°58'0 0.0
2018-Jul-13 05:59N 29°51' W 093°58'0 0.0
2018-Jul-13 05:29N 29°51' W 093°58'0 0.0
2018-Jul-13 04:59N 29°51' W 093°58'0 0.0
2018-Jul-13 04:29N 29°51' W 093°58'0 0.0
2018-Jul-13 03:59N 29°51' W 093°58'0 0.0
2018-Jul-13 03:29N 29°51' W 093°58'0 0.0
2018-Jul-13 02:59N 29°51' W 093°58'0 0.0
2018-Jul-13 02:29N 29°51' W 093°58'0 0.0
2018-Jul-13 01:59N 29°51' W 093°58'0 0.0
2018-Jul-13 01:29N 29°51' W 093°58'0 0.0
2018-Jul-13 00:59N 29°51' W 093°58'0 0.0
2018-Jul-13 00:29N 29°51' W 093°58'0 0.0
2018-Jul-12 23:59N 29°51' W 093°58'0 0.0
2018-Jul-12 23:29N 29°51' W 093°58'0 0.0
2018-Jul-12 22:59N 29°51' W 093°58'0 0.0
2018-Jul-12 22:29N 29°51' W 093°58'0 0.1
2018-Jul-12 21:59N 29°51' W 093°58'0 0.1
2018-Jul-12 21:29N 29°51' W 093°58'0 0.0
2018-Jul-12 20:59N 29°51' W 093°58'0 0.0
2018-Jul-12 20:29N 29°51' W 093°58'0 0.0
2018-Jul-12 20:01N 29°51' W 093°58'0 0.6
2018-Jul-12 19:30N 29°50' W 093°58'2 4.6
2018-Jul-12 19:01N 29°48' W 093°57'4 8.4
2018-Jul-12 18:31N 29°46' W 093°54'510.5
2018-Jul-12 18:00N 29°41' W 093°50'611.8
2018-Jul-12 17:30N 29°36' W 093°48'3 5.8
2018-Jul-12 17:01N 29°35' W 093°44'1 2.5
2018-Jul-12 16:29N 29°36' W 093°43'0 0.0
2018-Jul-12 15:59N 29°36' W 093°43'0 0.0
2018-Jul-12 15:29N 29°36' W 093°43'0 0.0
2018-Jul-12 14:59N 29°36' W 093°43'0 0.0
2018-Jul-12 14:29N 29°36' W 093°43'0 0.0
2018-Jul-12 13:59N 29°36' W 093°43'0 0.1
2018-Jul-12 13:29N 29°36' W 093°43'0 0.2
2018-Jul-12 12:59N 29°36' W 093°43'0 0.1
2018-Jul-12 12:29N 29°36' W 093°43'0 0.0
2018-Jul-12 11:59N 29°36' W 093°43'0 0.0
2018-Jul-12 11:29N 29°36' W 093°43'0 0.0
2018-Jul-12 10:59N 29°36' W 093°43'0 0.0
2018-Jul-12 10:29N 29°36' W 093°43'0 0.1
2018-Jul-12 09:59N 29°36' W 093°43'0 0.1
2018-Jul-12 09:29N 29°36' W 093°43'0 0.1
2018-Jul-12 08:59N 29°36' W 093°43'0 0.0
2018-Jul-12 08:29N 29°36' W 093°43'0 0.0
2018-Jul-12 07:59N 29°36' W 093°43'0 0.1
2018-Jul-12 07:29N 29°36' W 093°43'0 0.0
2018-Jul-12 06:59N 29°36' W 093°43'0 0.0
2018-Jul-12 06:29N 29°36' W 093°43'0 0.0
2018-Jul-12 05:59N 29°36' W 093°43'0 0.0
2018-Jul-12 05:29N 29°36' W 093°43'0 0.1
2018-Jul-12 04:59N 29°36' W 093°43'0 0.0
2018-Jul-12 04:29N 29°36' W 093°43'0 0.1
2018-Jul-12 03:59N 29°36' W 093°43'0 0.1
2018-Jul-12 03:29N 29°36' W 093°43'0 0.0
2018-Jul-12 02:59N 29°36' W 093°43'0 0.0
2018-Jul-12 02:29N 29°36' W 093°43'0 0.1
2018-Jul-12 01:59N 29°36' W 093°43'0 0.0
2018-Jul-12 01:29N 29°36' W 093°43'0 0.0
2018-Jul-12 00:59N 29°36' W 093°43'0 0.1
2018-Jul-12 00:29N 29°36' W 093°43'0 0.0
2018-Jul-11 23:59N 29°36' W 093°43'0 0.0
2018-Jul-11 23:29N 29°36' W 093°43'0 0.0
2018-Jul-11 22:59N 29°36' W 093°43'0 0.0
2018-Jul-11 22:29N 29°36' W 093°43'0 0.0
2018-Jul-11 21:59N 29°36' W 093°43'0 0.0
2018-Jul-11 21:29N 29°36' W 093°43'0 0.0
2018-Jul-11 20:59N 29°36' W 093°43'0 0.0
2018-Jul-11 20:29N 29°36' W 093°43'0 0.0
2018-Jul-11 19:59N 29°36' W 093°43'0 0.0
2018-Jul-11 19:29N 29°36' W 093°43'0 0.0
2018-Jul-11 18:59N 29°36' W 093°43'0 0.0
2018-Jul-11 18:29N 29°36' W 093°43'0 0.0
2018-Jul-11 17:59N 29°36' W 093°43'0 0.0
2018-Jul-11 17:29N 29°36' W 093°43'0 0.1
2018-Jul-11 16:59N 29°36' W 093°43'0 0.0
2018-Jul-11 16:29N 29°36' W 093°43'0 0.1
2018-Jul-11 15:59N 29°36' W 093°43'0 0.0
2018-Jul-11 15:29N 29°36' W 093°43'0 0.0
2018-Jul-11 14:59N 29°36' W 093°43'0 0.0
2018-Jul-11 14:29N 29°36' W 093°43'0 0.1
2018-Jul-11 13:59N 29°36' W 093°43'0 0.0
2018-Jul-11 13:29N 29°36' W 093°43'0 0.0
2018-Jul-11 12:59N 29°36' W 093°43'0 0.0
2018-Jul-11 12:29N 29°36' W 093°43'0 0.0
2018-Jul-11 11:59N 29°36' W 093°43'0 0.0
2018-Jul-11 11:29N 29°36' W 093°43'0 0.0
2018-Jul-11 10:59N 29°36' W 093°43'0 0.0
2018-Jul-11 10:29N 29°36' W 093°43'0 0.1
2018-Jul-11 09:59N 29°36' W 093°43'0 0.1
2018-Jul-11 09:29N 29°36' W 093°43'0 0.0
2018-Jul-11 08:59N 29°36' W 093°43'0 0.0
2018-Jul-11 08:29N 29°36' W 093°43'0 0.0
2018-Jul-11 07:59N 29°36' W 093°43'0 0.0
2018-Jul-11 07:29N 29°36' W 093°43'0 0.0
2018-Jul-11 06:59N 29°36' W 093°43'0 0.0
2018-Jul-11 06:29N 29°36' W 093°43'0 0.1
2018-Jul-11 05:59N 29°36' W 093°43'0 0.1
2018-Jul-11 05:29N 29°36' W 093°43'3 6.2
2018-Jul-11 05:00N 29°33' W 093°43'612.2
2018-Jul-11 04:30N 29°30' W 093°49'612.3
2018-Jul-11 04:00N 29°29' W 093°56'612.2
2018-Jul-11 03:30N 29°25' W 094°01'612.5
2018-Jul-11 03:00N 29°21' W 094°07'712.4
2018-Jul-11 02:26N 29°16' W 094°13'712.3
2018-Jul-11 01:50N 29°11' W 094°19'1110.0
2018-Jul-11 00:41N 29°13' W 094°32'212.4
2018-Jul-11 00:30N 29°15' W 094°34'612.7
2018-Jul-11 00:00N 29°19' W 094°39'713.2
2018-Jul-10 23:30N 29°21' W 094°46'510.9
2018-Jul-10 23:00N 29°23' W 094°52'1 2.1
2018-Jul-10 22:28N 29°22' W 094°53'0 0.0
2018-Jul-10 16:51N 29°22' W 094°53'0 0.0
2018-Jul-10 15:24N 29°22' W 094°53'0 0.0
2018-Jul-10 14:54N 29°22' W 094°53'0 0.0
2018-Jul-10 14:18N 29°22' W 094°53'0 0.0
2018-Jul-10 13:57N 29°22' W 094°53'0 0.0
2018-Jul-10 13:27N 29°22' W 094°53'0 0.0
2018-Jul-10 12:54N 29°22' W 094°53'0 0.0
2018-Jul-10 12:30N 29°22' W 094°53'0 0.0
2018-Jul-10 11:57N 29°22' W 094°53'0 0.0
2018-Jul-10 11:24N 29°22' W 094°53'0 0.0
2018-Jul-10 10:15N 29°22' W 094°53'0 0.0
2018-Jul-10 10:00N 29°22' W 094°53'0 0.0
2018-Jul-10 09:27N 29°22' W 094°53'0 0.0
2018-Jul-10 08:51N 29°22' W 094°53'0 0.0
2018-Jul-10 08:21N 29°22' W 094°53'0 0.0
2018-Jul-10 07:54N 29°22' W 094°53'0 0.0
2018-Jul-10 07:27N 29°22' W 094°53'0 0.0
2018-Jul-10 07:00N 29°22' W 094°53'0 0.0
2018-Jul-10 06:30N 29°22' W 094°53'0 0.0
2018-Jul-10 06:00N 29°22' W 094°53'0 0.0
2018-Jul-10 05:30N 29°22' W 094°53'0 0.0
2018-Jul-10 05:00N 29°22' W 094°53'0 0.0
2018-Jul-10 04:30N 29°22' W 094°53'0 0.0
2018-Jul-10 03:48N 29°22' W 094°53'0 0.0
2018-Jul-10 03:27N 29°22' W 094°53'0 0.0
2018-Jul-10 03:00N 29°22' W 094°53'0 0.0
2018-Jul-10 02:27N 29°22' W 094°53'0 0.0
2018-Jul-10 01:57N 29°22' W 094°53'0 0.0
2018-Jul-10 00:54N 29°22' W 094°53'0 0.0
2018-Jul-09 23:06N 29°22' W 094°53'0 0.0
2018-Jul-09 23:00N 29°22' W 094°53'0 0.0
2018-Jul-09 21:20N 29°22' W 094°53'0 1.0
2018-Jul-09 21:00N 29°23' W 094°53'5 9.6
2018-Jul-09 20:27N 29°21' W 094°47'10 1.7
2018-Jul-09 14:37N 29°19' W 094°36'0 0.0
2018-Jul-09 14:28N 29°19' W 094°36'0 0.0
2018-Jul-09 13:58N 29°19' W 094°36'0 0.0
2018-Jul-09 11:23N 29°20' W 094°36'2 4.3
2018-Jul-09 11:00N 29°18' W 094°35'812.3
2018-Jul-09 10:21N 29°13' W 094°28'611.9
2018-Jul-09 09:49N 29°09' W 094°22'410.9
2018-Jul-09 09:25N 29°07' W 094°18'2211.0
2018-Jul-09 07:25N 28°54' W 093°57'610.5
2018-Jul-09 06:48N 28°50' W 093°51'310.6
2018-Jul-09 06:31N 28°48' W 093°49'  
Track history (hours):
 
Tides and Currents Weather Stations Pressure Air Temp Water Temp Dewpoint Dewpoint Depression Visibility Wind Speed Wind Dir Waves Ship Positions

Pride

Owner: Intrepid Ship Management, Jacksonville, FL. More information available from US FCC via Universal Licensing System and Coast Guard Vessel Documentation Center.

Last reported at 2018-Jul-18 18:49 UTC. Time now 2018-Jul-19 19:26 UTC.
Position N 25°11' W 080°06'.

Length 215 m; draft 6.4 m.

Type: Towing. MMSI: 366341000.

Date/timePositionNaut miles runAvg speedWind from/ knotsBaromVisibWave heightAir tempDewpointWater temp
2018-Jul-18 18:49N 25°11' W 080°06'2 6.3
2018-Jul-18 18:26N 25°13' W 080°05'3 6.6
2018-Jul-18 18:00N 25°16' W 080°04'3 6.7
2018-Jul-18 17:30N 25°19' W 080°03'3 6.3
2018-Jul-18 16:59N 25°22' W 080°01'3 6.4
2018-Jul-18 16:30N 25°25' W 080°01'3 6.2
2018-Jul-18 16:00N 25°28' W 080°01'3 6.1
2018-Jul-18 15:30N 25°31' W 080°02'3 6.2
2018-Jul-18 15:00N 25°34' W 080°02'3 6.1
2018-Jul-18 14:30N 25°37' W 080°02'3 5.8
2018-Jul-18 14:00N 25°40' W 080°02'3 5.5
2018-Jul-18 13:30N 25°43' W 080°02'3 5.5
2018-Jul-18 13:00N 25°46' W 080°02'3 5.3
2018-Jul-18 12:30N 25°48' W 080°02'3 5.3
2018-Jul-18 12:00N 25°51' W 080°02'3 5.3
2018-Jul-18 11:30N 25°54' W 080°02'5 5.3
2018-Jul-18 10:30N 25°59' W 080°02'3 5.4
2018-Jul-18 10:00N 26°02' W 080°03'5 9.1
2018-Jul-18 09:30N 26°06' W 080°05'2 4.2
2018-Jul-18 09:00N 26°05' W 080°07'0 0.2
2018-Jul-18 08:30N 26°05' W 080°07'0 0.0
2018-Jul-18 08:00N 26°05' W 080°07'0 0.0
2018-Jul-18 07:30N 26°05' W 080°07'0 0.0
2018-Jul-18 06:57N 26°05' W 080°07'0 0.0
2018-Jul-18 06:30N 26°05' W 080°07'0 0.0
2018-Jul-18 06:00N 26°05' W 080°07'0 0.0
2018-Jul-18 05:30N 26°05' W 080°07'0 0.0
2018-Jul-18 05:00N 26°05' W 080°07'0 0.0
2018-Jul-18 04:30N 26°05' W 080°07'0 0.0
2018-Jul-18 04:00N 26°05' W 080°07'0 0.0
2018-Jul-18 03:21N 26°05' W 080°07'0 0.0
2018-Jul-18 02:51N 26°05' W 080°07'0 0.0
2018-Jul-18 02:30N 26°05' W 080°07'0 0.0
2018-Jul-18 01:54N 26°05' W 080°07'0 0.0
2018-Jul-18 01:24N 26°05' W 080°07'0 0.0
2018-Jul-18 00:54N 26°05' W 080°07'0 0.0
2018-Jul-18 00:24N 26°05' W 080°07'0 0.0
2018-Jul-17 23:54N 26°05' W 080°07'0 0.0
2018-Jul-17 23:24N 26°05' W 080°07'0 0.0
2018-Jul-17 22:54N 26°05' W 080°07'0 0.0
2018-Jul-17 22:24N 26°05' W 080°07'0 0.0
2018-Jul-17 21:57N 26°05' W 080°07'0 0.0
2018-Jul-17 21:27N 26°05' W 080°07'0 0.0
2018-Jul-17 20:57N 26°05' W 080°07'0 0.0
2018-Jul-17 20:27N 26°05' W 080°07'0 0.0
2018-Jul-17 20:00N 26°05' W 080°07'0 0.0
2018-Jul-17 19:30N 26°05' W 080°07'0 0.0
2018-Jul-17 19:00N 26°05' W 080°07'0 0.0
2018-Jul-17 18:27N 26°05' W 080°07'0 0.0
2018-Jul-17 18:00N 26°05' W 080°07'0 0.0
2018-Jul-17 17:27N 26°05' W 080°07'0 0.0
2018-Jul-17 17:00N 26°05' W 080°07'0 0.0
2018-Jul-17 16:30N 26°05' W 080°07'0 0.0
2018-Jul-17 16:00N 26°05' W 080°07'0 0.0
2018-Jul-17 15:30N 26°05' W 080°07'0 0.0
2018-Jul-17 15:00N 26°05' W 080°07'0 0.0
2018-Jul-17 14:30N 26°05' W 080°07'0 0.0
2018-Jul-17 14:00N 26°05' W 080°07'0 0.0
2018-Jul-17 13:30N 26°05' W 080°07'0 0.0
2018-Jul-17 13:00N 26°05' W 080°07'0 0.0
2018-Jul-17 12:30N 26°05' W 080°07'0 0.0
2018-Jul-17 12:00N 26°05' W 080°07'0 0.0
2018-Jul-17 11:30N 26°05' W 080°07'0 0.0
2018-Jul-17 10:51N 26°05' W 080°07'0 0.0
2018-Jul-17 10:21N 26°05' W 080°07'0 0.0
2018-Jul-17 09:54N 26°05' W 080°07'0 0.0
2018-Jul-17 09:24N 26°05' W 080°07'0 0.0
2018-Jul-17 08:54N 26°05' W 080°07'0 0.0
2018-Jul-17 08:24N 26°05' W 080°07'0 0.0
2018-Jul-17 07:57N 26°05' W 080°07'0 0.0
2018-Jul-17 07:24N 26°05' W 080°07'0 0.0
2018-Jul-17 06:57N 26°05' W 080°07'0 0.0
2018-Jul-17 06:27N 26°05' W 080°07'0 0.0
2018-Jul-17 05:57N 26°05' W 080°07'0 0.0
2018-Jul-17 05:30N 26°05' W 080°07'0 0.0
2018-Jul-17 04:57N 26°05' W 080°07'0 0.0
2018-Jul-17 04:30N 26°05' W 080°07'0 0.0
2018-Jul-17 04:00N 26°05' W 080°07'0 0.0
2018-Jul-17 03:30N 26°05' W 080°07'0 0.2
2018-Jul-17 03:00N 26°05' W 080°07'0 0.0
2018-Jul-17 02:30N 26°05' W 080°07'0 0.5
2018-Jul-17 02:00N 26°05' W 080°07'4 7.4
2018-Jul-17 01:30N 26°06' W 080°03'3 6.3
2018-Jul-17 01:00N 26°09' W 080°01'0 0.3
2018-Jul-17 00:29N 26°09' W 080°01'0 0.5
2018-Jul-16 23:30N 26°09' W 080°01'713.7
2018-Jul-16 23:00N 26°04' W 079°56'815.7
2018-Jul-16 22:30N 25°57' W 079°53'816.7
2018-Jul-16 22:01N 25°49' W 079°53'816.6
2018-Jul-16 21:31N 25°40' W 079°53'916.5
2018-Jul-16 20:59N 25°32' W 079°54'  
2018-Jul-13 22:54N 29°12' W 093°40'511.9
2018-Jul-13 22:28N 29°17' W 093°40'511.8
2018-Jul-13 22:01N 29°23' W 093°40'611.8
2018-Jul-13 21:31N 29°29' W 093°40'611.7
2018-Jul-13 21:01N 29°33' W 093°45'510.9
2018-Jul-13 20:30N 29°37' W 093°49'611.3
2018-Jul-13 20:00N 29°42' W 093°51'4 8.3
2018-Jul-13 19:30N 29°46' W 093°54'4 7.9
2018-Jul-13 19:00N 29°48' W 093°57'2 4.7
2018-Jul-13 18:30N 29°50' W 093°58'0 0.7
2018-Jul-13 18:01N 29°51' W 093°58'0 0.0
2018-Jul-13 17:29N 29°51' W 093°58'0 0.0
2018-Jul-13 16:59N 29°51' W 093°58'0 0.0
2018-Jul-13 16:29N 29°51' W 093°58'0 0.0
2018-Jul-13 15:59N 29°51' W 093°58'0 0.0
2018-Jul-13 15:29N 29°51' W 093°58'0 0.0
2018-Jul-13 14:59N 29°51' W 093°58'0 0.0
2018-Jul-13 13:59N 29°51' W 093°58'0 0.0
2018-Jul-13 13:29N 29°51' W 093°58'0 0.0
2018-Jul-13 12:59N 29°51' W 093°58'0 0.0
2018-Jul-13 12:29N 29°51' W 093°58'0 0.0
2018-Jul-13 11:59N 29°51' W 093°58'0 0.0
2018-Jul-13 11:29N 29°51' W 093°58'0 0.0
2018-Jul-13 10:59N 29°51' W 093°58'0 0.0
2018-Jul-13 10:29N 29°51' W 093°58'0 0.0
2018-Jul-13 09:59N 29°51' W 093°58'0 0.0
2018-Jul-13 09:29N 29°51' W 093°58'0 0.0
2018-Jul-13 08:59N 29°51' W 093°58'0 0.0
2018-Jul-13 08:29N 29°51' W 093°58'0 0.0
2018-Jul-13 07:59N 29°51' W 093°58'0 0.0
2018-Jul-13 07:29N 29°51' W 093°58'0 0.0
2018-Jul-13 06:59N 29°51' W 093°58'0 0.0
2018-Jul-13 06:29N 29°51' W 093°58'0 0.0
2018-Jul-13 05:59N 29°51' W 093°58'0 0.0
2018-Jul-13 05:29N 29°51' W 093°58'0 0.0
2018-Jul-13 04:59N 29°51' W 093°58'0 0.0
2018-Jul-13 04:29N 29°51' W 093°58'0 0.0
2018-Jul-13 03:59N 29°51' W 093°58'0 0.0
2018-Jul-13 03:29N 29°51' W 093°58'0 0.0
2018-Jul-13 02:59N 29°51' W 093°58'0 0.0
2018-Jul-13 02:29N 29°51' W 093°58'0 0.0
2018-Jul-13 01:59N 29°51' W 093°58'0 0.0
2018-Jul-13 01:29N 29°51' W 093°58'0 0.0
2018-Jul-13 00:59N 29°51' W 093°58'0 0.0
2018-Jul-13 00:29N 29°51' W 093°58'0 0.0
2018-Jul-12 23:59N 29°51' W 093°58'0 0.0
2018-Jul-12 23:29N 29°51' W 093°58'0 0.0
2018-Jul-12 22:59N 29°51' W 093°58'0 0.0
2018-Jul-12 22:29N 29°51' W 093°58'0 0.1
2018-Jul-12 21:59N 29°51' W 093°58'0 0.1
2018-Jul-12 21:29N 29°51' W 093°58'0 0.0
2018-Jul-12 20:59N 29°51' W 093°58'0 0.0
2018-Jul-12 20:29N 29°51' W 093°58'0 0.0
2018-Jul-12 20:01N 29°51' W 093°58'0 0.6
2018-Jul-12 19:30N 29°50' W 093°58'2 4.6
2018-Jul-12 19:01N 29°48' W 093°57'4 8.4
2018-Jul-12 18:31N 29°46' W 093°54'510.5
2018-Jul-12 18:00N 29°41' W 093°50'611.8
2018-Jul-12 17:30N 29°36' W 093°48'3 5.8
2018-Jul-12 17:01N 29°35' W 093°44'1 2.5
2018-Jul-12 16:29N 29°36' W 093°43'0 0.0
2018-Jul-12 15:59N 29°36' W 093°43'0 0.0
2018-Jul-12 15:29N 29°36' W 093°43'0 0.0
2018-Jul-12 14:59N 29°36' W 093°43'0 0.0
2018-Jul-12 14:29N 29°36' W 093°43'0 0.0
2018-Jul-12 13:59N 29°36' W 093°43'0 0.1
2018-Jul-12 13:29N 29°36' W 093°43'0 0.2
2018-Jul-12 12:59N 29°36' W 093°43'0 0.1
2018-Jul-12 12:29N 29°36' W 093°43'0 0.0
2018-Jul-12 11:59N 29°36' W 093°43'0 0.0
2018-Jul-12 11:29N 29°36' W 093°43'0 0.0
2018-Jul-12 10:59N 29°36' W 093°43'0 0.0
2018-Jul-12 10:29N 29°36' W 093°43'0 0.1
2018-Jul-12 09:59N 29°36' W 093°43'0 0.1
2018-Jul-12 09:29N 29°36' W 093°43'0 0.1
2018-Jul-12 08:59N 29°36' W 093°43'0 0.0
2018-Jul-12 08:29N 29°36' W 093°43'0 0.0
2018-Jul-12 07:59N 29°36' W 093°43'0 0.1
2018-Jul-12 07:29N 29°36' W 093°43'0 0.0
2018-Jul-12 06:59N 29°36' W 093°43'0 0.0
2018-Jul-12 06:29N 29°36' W 093°43'0 0.0
2018-Jul-12 05:59N 29°36' W 093°43'0 0.0
2018-Jul-12 05:29N 29°36' W 093°43'0 0.1
2018-Jul-12 04:59N 29°36' W 093°43'0 0.0
2018-Jul-12 04:29N 29°36' W 093°43'0 0.1
2018-Jul-12 03:59N 29°36' W 093°43'0 0.1
2018-Jul-12 03:29N 29°36' W 093°43'0 0.0
2018-Jul-12 02:59N 29°36' W 093°43'0 0.0
2018-Jul-12 02:29N 29°36' W 093°43'0 0.1
2018-Jul-12 01:59N 29°36' W 093°43'0 0.0
2018-Jul-12 01:29N 29°36' W 093°43'0 0.0
2018-Jul-12 00:59N 29°36' W 093°43'0 0.1
2018-Jul-12 00:29N 29°36' W 093°43'0 0.0
2018-Jul-11 23:59N 29°36' W 093°43'0 0.0
2018-Jul-11 23:29N 29°36' W 093°43'0 0.0
2018-Jul-11 22:59N 29°36' W 093°43'0 0.0
2018-Jul-11 22:29N 29°36' W 093°43'0 0.0
2018-Jul-11 21:59N 29°36' W 093°43'0 0.0
2018-Jul-11 21:29N 29°36' W 093°43'0 0.0
2018-Jul-11 20:59N 29°36' W 093°43'0 0.0
2018-Jul-11 20:29N 29°36' W 093°43'0 0.0
2018-Jul-11 19:59N 29°36' W 093°43'0 0.0
2018-Jul-11 19:29N 29°36' W 093°43'0 0.0
2018-Jul-11 18:59N 29°36' W 093°43'0 0.0
2018-Jul-11 18:29N 29°36' W 093°43'0 0.0
2018-Jul-11 17:59N 29°36' W 093°43'0 0.0
2018-Jul-11 17:29N 29°36' W 093°43'0 0.1
2018-Jul-11 16:59N 29°36' W 093°43'0 0.0
2018-Jul-11 16:29N 29°36' W 093°43'0 0.1
2018-Jul-11 15:59N 29°36' W 093°43'0 0.0
2018-Jul-11 15:29N 29°36' W 093°43'0 0.0
2018-Jul-11 14:59N 29°36' W 093°43'0 0.0
2018-Jul-11 14:29N 29°36' W 093°43'0 0.1
2018-Jul-11 13:59N 29°36' W 093°43'0 0.0
2018-Jul-11 13:29N 29°36' W 093°43'0 0.0
2018-Jul-11 12:59N 29°36' W 093°43'0 0.0
2018-Jul-11 12:29N 29°36' W 093°43'0 0.0
2018-Jul-11 11:59N 29°36' W 093°43'0 0.0
2018-Jul-11 11:29N 29°36' W 093°43'0 0.0
2018-Jul-11 10:59N 29°36' W 093°43'0 0.0
2018-Jul-11 10:29N 29°36' W 093°43'0 0.1
2018-Jul-11 09:59N 29°36' W 093°43'0 0.1
2018-Jul-11 09:29N 29°36' W 093°43'0 0.0
2018-Jul-11 08:59N 29°36' W 093°43'0 0.0
2018-Jul-11 08:29N 29°36' W 093°43'0 0.0
2018-Jul-11 07:59N 29°36' W 093°43'0 0.0
2018-Jul-11 07:29N 29°36' W 093°43'0 0.0
2018-Jul-11 06:59N 29°36' W 093°43'0 0.0
2018-Jul-11 06:29N 29°36' W 093°43'0 0.1
2018-Jul-11 05:59N 29°36' W 093°43'0 0.1
2018-Jul-11 05:29N 29°36' W 093°43'3 6.2
2018-Jul-11 05:00N 29°33' W 093°43'612.2
2018-Jul-11 04:30N 29°30' W 093°49'612.3
2018-Jul-11 04:00N 29°29' W 093°56'612.2
2018-Jul-11 03:30N 29°25' W 094°01'612.5
2018-Jul-11 03:00N 29°21' W 094°07'712.4
2018-Jul-11 02:26N 29°16' W 094°13'712.3
2018-Jul-11 01:50N 29°11' W 094°19'1110.0
2018-Jul-11 00:41N 29°13' W 094°32'212.4
2018-Jul-11 00:30N 29°15' W 094°34'612.7
2018-Jul-11 00:00N 29°19' W 094°39'713.2
2018-Jul-10 23:30N 29°21' W 094°46'510.9
2018-Jul-10 23:00N 29°23' W 094°52'1 2.1
2018-Jul-10 22:28N 29°22' W 094°53'0 0.0
2018-Jul-10 16:51N 29°22' W 094°53'0 0.0
2018-Jul-10 15:24N 29°22' W 094°53'0 0.0
2018-Jul-10 14:54N 29°22' W 094°53'0 0.0
2018-Jul-10 14:18N 29°22' W 094°53'0 0.0
2018-Jul-10 13:57N 29°22' W 094°53'0 0.0
2018-Jul-10 13:27N 29°22' W 094°53'0 0.0
2018-Jul-10 12:54N 29°22' W 094°53'0 0.0
2018-Jul-10 12:30N 29°22' W 094°53'0 0.0
2018-Jul-10 11:57N 29°22' W 094°53'0 0.0
2018-Jul-10 11:24N 29°22' W 094°53'0 0.0
2018-Jul-10 10:15N 29°22' W 094°53'0 0.0
2018-Jul-10 10:00N 29°22' W 094°53'0 0.0
2018-Jul-10 09:27N 29°22' W 094°53'0 0.0
2018-Jul-10 08:51N 29°22' W 094°53'0 0.0
2018-Jul-10 08:21N 29°22' W 094°53'0 0.0
2018-Jul-10 07:54N 29°22' W 094°53'0 0.0
2018-Jul-10 07:27N 29°22' W 094°53'0 0.0
2018-Jul-10 07:00N 29°22' W 094°53'0 0.0
2018-Jul-10 06:30N 29°22' W 094°53'0 0.0
2018-Jul-10 06:00N 29°22' W 094°53'0 0.0
2018-Jul-10 05:30N 29°22' W 094°53'0 0.0
2018-Jul-10 05:00N 29°22' W 094°53'0 0.0
2018-Jul-10 04:30N 29°22' W 094°53'0 0.0
2018-Jul-10 03:48N 29°22' W 094°53'0 0.0
2018-Jul-10 03:27N 29°22' W 094°53'0 0.0
2018-Jul-10 03:00N 29°22' W 094°53'0 0.0
2018-Jul-10 02:27N 29°22' W 094°53'0 0.0
2018-Jul-10 01:57N 29°22' W 094°53'0 0.0
2018-Jul-10 00:54N 29°22' W 094°53'0 0.0
2018-Jul-09 23:06N 29°22' W 094°53'0 0.0
2018-Jul-09 23:00N 29°22' W 094°53'0 0.0
2018-Jul-09 21:20N 29°22' W 094°53'0 1.0
2018-Jul-09 21:00N 29°23' W 094°53'5 9.6
2018-Jul-09 20:27N 29°21' W 094°47'10 1.7
2018-Jul-09 14:37N 29°19' W 094°36'0 0.0
2018-Jul-09 14:28N 29°19' W 094°36'0 0.0
2018-Jul-09 13:58N 29°19' W 094°36'0 0.0
2018-Jul-09 11:23N 29°20' W 094°36'2 4.3
2018-Jul-09 11:00N 29°18' W 094°35'812.3
2018-Jul-09 10:21N 29°13' W 094°28'611.9
2018-Jul-09 09:49N 29°09' W 094°22'410.9
2018-Jul-09 09:25N 29°07' W 094°18'2211.0
2018-Jul-09 07:25N 28°54' W 093°57'610.5
2018-Jul-09 06:48N 28°50' W 093°51'310.6
2018-Jul-09 06:31N 28°48' W 093°49'  

Dump ship's entire track history